Ash Grove, Missouri
Current Conditions -  °F | °C
As of 5:52 AM on Monday 26 Jan 2015 (Local Time) from KSGF Reporting Station
Overcast Overcast  
Wind Chill: 32°   Ceiling: 1800
Heat Index: 32°   Visibility: 10mi
Dew Point: 28°   Wind: 3mph
Humidity: 85%   Direction: 240°WSW
Pressure: 30.07"   Gusts: NA
Location:  37.32°N, 93.59°W
Report Text: KSGF 261152Z 24003KT 10SM OVC018 00/M02 A3007 RMK AO2 SLP193 70002 T00001022 10017 20000 56003
Loading
Personal Weather Stations






























Interactive Weather Map New forecast layout! Learn more

10-Day Weather Forecast

Advertisements
Track Severe Weather on mobile